Weather History for Sylvania, GA

Change the Weather History Date:

Saturday, January 18, 2014

  Actual Average (KSAV) Record (KSAV)
Temperature  
Mean Temperature 42 °F 49 °F  
Max Temperature 49 °F 60 °F 81 °F (1937)
Min Temperature 34 °F 38 °F 20 °F (1957)
Degree Days  
Heating Degree Days 24 16  
Month to date heating degree days 288  
Since 1 July heating degree days 978  
Cooling Degree Days 0 0  
Month to date cooling degree days 0  
Year to date cooling degree days 0  
Moisture  
Dew Point 17 °F    
Average Humidity 40    
Maximum Humidity 58    
Minimum Humidity 24    
Precipitation  
Precipitation 0.00 in 0.12 in 3.48 in (1883)
Month to date precipitation 2.05  
Year to date precipitation 2.05  
Sea Level Pressure  
Sea Level Pressure 30.13 in    
Wind  
Wind Speed 9 mph (WNW)    
Max Wind Speed 18 mph    
Max Gust Speed 25 mph    
Visibility 10 miles    
Events      
T = Trace of Precipitation, MM = Missing Value Source: NWS Daily Summary

Daily Weather History Graph

Daily Weather History Graph

Search for Another Location

Airport:

Trip Planner

Search our weather history database for the weather conditions in past years. The results will help you decide how hot, cold, wet, or windy it might be!

Date:

Astronomy

Jan. 18, 2014 Rise Set
Actual Time 7:27 AM EST 5:46 PM EST
Civil Twilight 7:01 AM EST 6:12 PM EST
Nautical Twilight 6:31 AM EST 6:42 PM EST
Astronomical Twilight 6:01 AM EST 7:12 PM EST
Moon 8:15 PM EST (1/18) 8:36 AM EST (1/18)
Length of Visible Light 11h 11m
Length of Day
10h 18m
Waning Gibbous, 94% of the Moon is Illuminated
Jan 18
Waning Gibbous
Jan 24
Last Quarter
Jan 30
New
Feb 6
First Quarter
Feb 14
Full

Hourly Weather History & Observations

Time (EST) Temp. Windchill Dew Point Humidity Pressure Visibility Wind Dir Wind Speed Gust Speed Precip Events Conditions
12:15 AM 47.3 °F - 15.4 °F 28% 30.03 in 10.0 mi WNW 11.5 mph 16.1 mph N/A   Clear
12:35 AM 46.8 °F - 16.0 °F 29% 30.03 in 10.0 mi WNW 10.4 mph 19.6 mph N/A   Clear
12:55 AM 45.0 °F 40.6 °F 17.4 °F 33% 30.03 in 10.0 mi WNW 8.1 mph - N/A   Clear
1:15 AM 43.9 °F 41.3 °F 18.0 °F 35% 30.03 in 10.0 mi WNW 4.6 mph - N/A   Clear
1:35 AM 43.2 °F 38.4 °F 17.8 °F 36% 30.04 in 10.0 mi WNW 8.1 mph - N/A   Clear
1:55 AM 41.9 °F 39.0 °F 19.2 °F 40% 30.04 in 10.0 mi WNW 4.6 mph - N/A   Clear
2:15 AM 40.5 °F 35.1 °F 20.8 °F 46% 30.06 in 10.0 mi NW 8.1 mph - N/A   Clear
2:35 AM 42.1 °F 34.9 °F 19.8 °F 41% 30.07 in 10.0 mi WNW 13.8 mph 21.9 mph N/A   Clear
2:55 AM 41.4 °F 33.6 °F 20.8 °F 44% 30.08 in 10.0 mi NW 15.0 mph 21.9 mph N/A   Clear
3:15 AM 40.5 °F 32.1 °F 21.0 °F 46% 30.09 in 10.0 mi NW 16.1 mph - N/A   Clear
3:35 AM 39.7 °F 33.2 °F 21.7 °F 49% 30.09 in 10.0 mi NW 10.4 mph - N/A   Clear
3:55 AM 39.4 °F 33.2 °F 21.0 °F 48% 30.10 in 10.0 mi NW 9.2 mph 16.1 mph N/A   Clear
4:15 AM 38.8 °F 31.2 °F 20.5 °F 48% 30.11 in 10.0 mi WNW 12.7 mph - N/A   Clear
4:35 AM 38.3 °F 31.9 °F 19.4 °F 47% 30.11 in 10.0 mi WNW 9.2 mph - N/A   Clear
4:55 AM 37.8 °F 29.8 °F 17.6 °F 44% 30.12 in 10.0 mi WNW 12.7 mph - N/A   Clear
5:15 AM 37.0 °F 29.8 °F 16.5 °F 43% 30.12 in 10.0 mi WNW 10.4 mph 17.3 mph N/A   Clear
5:35 AM 36.5 °F 30.3 °F 17.1 °F 45% 30.13 in 10.0 mi West 8.1 mph - N/A   Clear
5:55 AM 36.0 °F 30.3 °F 17.6 °F 47% 30.14 in 10.0 mi WNW 6.9 mph - N/A   Clear
6:15 AM 35.1 °F 30.1 °F 18.1 °F 50% 30.14 in 10.0 mi WNW 5.8 mph - N/A   Clear
6:35 AM 34.3 °F 28.4 °F 17.8 °F 51% 30.15 in 10.0 mi West 6.9 mph - N/A   Clear
6:55 AM 34.7 °F 28.1 °F 18.0 °F 51% 30.15 in 10.0 mi WNW 8.1 mph - N/A   Clear
7:15 AM 34.3 °F 28.4 °F 18.1 °F 52% 30.16 in 10.0 mi West 6.9 mph - N/A   Clear
7:35 AM 34.3 °F 27.7 °F 17.4 °F 50% 30.16 in 10.0 mi WNW 8.1 mph - N/A   Clear
7:55 AM 34.0 °F 28.8 °F 18.0 °F 52% 30.17 in 10.0 mi West 5.8 mph - N/A   Clear
8:15 AM 34.9 °F 26.6 °F 17.8 °F 50% 30.17 in 10.0 mi WNW 11.5 mph - N/A   Clear
8:35 AM 35.6 °F 27.1 °F 16.7 °F 46% 30.18 in 10.0 mi WNW 12.7 mph 16.1 mph N/A   Clear
8:55 AM 36.1 °F 26.9 °F 16.2 °F 44% 30.19 in 10.0 mi WNW 15.0 mph 19.6 mph N/A   Clear
9:15 AM 36.7 °F 26.6 °F 15.4 °F 42% 30.19 in 10.0 mi WNW 18.4 mph 25.3 mph N/A   Clear
9:35 AM 37.6 °F 29.6 °F 15.8 °F 41% 30.21 in 10.0 mi West 12.7 mph 21.9 mph N/A   Clear
9:55 AM 38.3 °F 30.5 °F 15.8 °F 40% 30.22 in 10.0 mi WNW 12.7 mph 19.6 mph N/A   Clear
10:15 AM 38.8 °F 31.6 °F 15.6 °F 39% 30.22 in 10.0 mi WNW 11.5 mph 19.6 mph N/A   Clear
10:35 AM 40.3 °F 33.0 °F 16.2 °F 38% 30.22 in 10.0 mi WNW 12.7 mph 17.3 mph N/A   Clear
10:55 AM 41.2 °F 32.7 °F 16.0 °F 36% 30.22 in 10.0 mi NW 17.3 mph 20.7 mph N/A   Clear
11:15 AM 41.9 °F 34.6 °F 15.4 °F 34% 30.21 in 10.0 mi West 13.8 mph 20.7 mph N/A   Clear
11:35 AM 42.8 °F 35.4 °F 15.8 °F 34% 30.21 in 10.0 mi WNW 15.0 mph - N/A   Clear
11:55 AM 43.2 °F 37.4 °F 15.3 °F 32% 30.20 in 10.0 mi WNW 10.4 mph 17.3 mph N/A   Clear
12:15 PM 44.4 °F 37.5 °F 15.4 °F 31% 30.19 in 10.0 mi West 15.0 mph 19.6 mph N/A   Clear
12:35 PM 44.8 °F 38.7 °F 15.1 °F 30% 30.18 in 10.0 mi WNW 12.7 mph 21.9 mph N/A   Clear
12:55 PM 45.7 °F 39.5 °F 15.6 °F 30% 30.17 in 10.0 mi NW 13.8 mph 21.9 mph N/A   Clear
1:15 PM 46.0 °F 39.3 °F 15.4 °F 29% 30.15 in 10.0 mi NW 16.1 mph 19.6 mph N/A   Clear
1:35 PM 46.6 °F - 14.9 °F 28% 30.14 in 10.0 mi WNW 11.5 mph - N/A   Clear
1:55 PM 47.1 °F - 15.4 °F 28% 30.13 in 10.0 mi West 11.5 mph 17.3 mph N/A   Clear
2:15 PM 47.7 °F - 14.9 °F 27% 30.13 in 10.0 mi WNW 16.1 mph 23.0 mph N/A   Clear
2:35 PM 48.2 °F - 15.8 °F 27% 30.12 in 10.0 mi West 9.2 mph - N/A   Clear
2:55 PM 48.9 °F - 15.8 °F 27% 30.12 in 10.0 mi West 10.4 mph 17.3 mph N/A   Clear
3:15 PM 48.9 °F - 14.2 °F 25% 30.12 in 10.0 mi West 10.4 mph - N/A   Clear
3:35 PM 48.7 °F - 14.5 °F 26% 30.13 in 10.0 mi WNW 11.5 mph - N/A   Clear
3:55 PM 49.1 °F - 14.0 °F 25% 30.12 in 10.0 mi WNW 12.7 mph 20.7 mph N/A   Clear
4:15 PM 49.1 °F - 14.2 °F 25% 30.12 in 10.0 mi WNW 9.2 mph - N/A   Clear
4:35 PM 48.6 °F - 13.1 °F 24% 30.12 in 10.0 mi WNW 8.1 mph - N/A   Clear
4:55 PM 48.2 °F - 12.6 °F 24% 30.12 in 10.0 mi West 6.9 mph - N/A   Clear
5:15 PM 47.5 °F - 14.0 °F 26% 30.12 in 10.0 mi West 5.8 mph - N/A   Clear
5:35 PM 46.4 °F 44.3 °F 14.7 °F 28% 30.12 in 10.0 mi West 4.6 mph - N/A   Clear
5:55 PM 45.0 °F - 15.3 °F 30% 30.12 in 10.0 mi Calm Calm - N/A   Clear
6:15 PM 43.9 °F 42.3 °F 15.1 °F 31% 30.13 in 10.0 mi West 3.5 mph - N/A   Clear
6:35 PM 40.3 °F - 18.5 °F 42% 30.13 in 10.0 mi Calm Calm - N/A   Clear
6:55 PM 39.6 °F 37.4 °F 18.5 °F 43% 30.13 in 10.0 mi WSW 3.5 mph - N/A   Clear
7:15 PM 40.6 °F 38.6 °F 18.1 °F 40% 30.13 in 10.0 mi SW 3.5 mph - N/A   Clear
7:35 PM 40.3 °F 38.2 °F 18.1 °F 41% 30.13 in 10.0 mi WSW 3.5 mph - N/A   Clear
7:55 PM 39.0 °F - 18.1 °F 43% 30.13 in 10.0 mi Calm Calm - N/A   Clear
8:15 PM 37.4 °F - 18.0 °F 45% 30.13 in 10.0 mi Calm Calm - N/A   Clear
8:35 PM 35.6 °F - 21.9 °F 58% 30.13 in 10.0 mi Calm Calm - N/A   Clear
8:55 PM 34.5 °F - 21.2 °F 58% 30.13 in 10.0 mi Calm Calm - N/A   Clear
9:15 PM 34.9 °F - 21.6 °F 58% 30.13 in 10.0 mi Calm Calm - N/A   Clear
9:35 PM 35.6 °F - 21.2 °F 56% 30.13 in 10.0 mi Calm Calm - N/A   Clear
9:55 PM 35.2 °F - 21.9 °F 58% 30.12 in 10.0 mi Calm Calm - N/A   Clear
10:15 PM 36.0 °F - 22.1 °F 57% 30.12 in 10.0 mi Calm Calm - N/A   Clear
10:35 PM 37.4 °F - 20.5 °F 51% 30.12 in 10.0 mi Calm Calm - N/A   Clear
10:55 PM 36.7 °F - 20.3 °F 52% 30.11 in 10.0 mi Calm Calm - N/A   Clear
11:15 PM 36.9 °F - 20.1 °F 51% 30.10 in 10.0 mi Calm Calm - N/A   Clear
11:35 PM 38.3 °F - 19.2 °F 46% 30.09 in 10.0 mi Calm Calm - N/A   Clear
11:55 PM 37.8 °F - 19.0 °F 47% 30.10 in 10.0 mi Calm Calm - N/A   Clear